DELMC EDLW-EDLH
Flight info
| Callsign | DELMC |
|---|---|
| Flight time | 0h 26m |
| Altitude | |
| Route | |
| Aircraft | C152 |
Departure
| Time | 2026-05-05 20:38 |
|---|---|
| Airport | Dortmund Airport (EDLW) |
Arrival
| Time | 2026-05-05 21:05 |
|---|---|
| Airport | Hamm-Lippewiesen Airfield (EDLH) |
| Time | Latitude | Longitude | Altitude | Speed | Heading |
|---|---|---|---|---|---|
| 2026-05-05 20:33 | 51.51467 | 7.60937 | 437 ft | 20 kts | 60° |
| 2026-05-05 20:33 | 51.51542 | 7.61053 | 438 ft | 12 kts | 351° |
| 2026-05-05 20:33 | 51.51591 | 7.61081 | 432 ft | 12 kts | 62° |
| 2026-05-05 20:34 | 51.51630 | 7.61196 | 429 ft | 11 kts | 58° |
| 2026-05-05 20:34 | 51.51669 | 7.61303 | 434 ft | 11 kts | 60° |
| 2026-05-05 20:34 | 51.51704 | 7.61404 | 436 ft | 10 kts | 61° |
| 2026-05-05 20:34 | 51.51745 | 7.61516 | 432 ft | 13 kts | 55° |
| 2026-05-05 20:35 | 51.51794 | 7.61657 | 429 ft | 15 kts | 61° |
| 2026-05-05 20:35 | 51.51846 | 7.61805 | 427 ft | 15 kts | 59° |
| 2026-05-05 20:35 | 51.51900 | 7.61959 | 424 ft | 17 kts | 61° |
| 2026-05-05 20:35 | 51.51964 | 7.62140 | 417 ft | 20 kts | 60° |
| 2026-05-05 20:36 | 51.52037 | 7.62345 | 409 ft | 18 kts | 62° |
| 2026-05-05 20:36 | 51.52092 | 7.62394 | 405 ft | 8 kts | 330° |
| 2026-05-05 20:36 | 51.52127 | 7.62362 | 403 ft | 0 kts | 332° |
| 2026-05-05 20:37 | 51.52150 | 7.62341 | 405 ft | 13 kts | 333° |
| 2026-05-05 20:37 | 51.52180 | 7.62203 | 406 ft | 19 kts | 240° |
| 2026-05-05 20:37 | 51.52026 | 7.61765 | 424 ft | 67 kts | 238° |
| 2026-05-05 20:37 | 51.51797 | 7.61072 | 622 ft | 73 kts | 244° |
| 2026-05-05 20:38 | 51.51550 | 7.60317 | 809 ft | 80 kts | 243° |
| 2026-05-05 20:38 | 51.51280 | 7.59521 | 985 ft | 86 kts | 240° |
| 2026-05-05 20:38 | 51.50957 | 7.58676 | 1137 ft | 90 kts | 237° |
| 2026-05-05 20:38 | 51.50502 | 7.58068 | 1344 ft | 89 kts | 184° |
| 2026-05-05 20:39 | 51.49933 | 7.58499 | 1490 ft | 91 kts | 148° |
| 2026-05-05 20:39 | 51.49443 | 7.59099 | 1698 ft | 88 kts | 127° |
| 2026-05-05 20:39 | 51.49406 | 7.60011 | 1858 ft | 92 kts | 70° |
| 2026-05-05 20:39 | 51.49673 | 7.60998 | 1942 ft | 105 kts | 64° |
| 2026-05-05 20:40 | 51.50022 | 7.62077 | 1892 ft | 109 kts | 61° |
| 2026-05-05 20:40 | 51.50384 | 7.63132 | 1851 ft | 106 kts | 60° |
| 2026-05-05 20:40 | 51.50720 | 7.64174 | 1641 ft | 106 kts | 65° |
| 2026-05-05 20:40 | 51.51031 | 7.65177 | 1563 ft | 90 kts | 44° |
| 2026-05-05 20:41 | 51.51590 | 7.65450 | 1465 ft | 84 kts | 348° |
| 2026-05-05 20:41 | 51.52157 | 7.65164 | 1346 ft | 88 kts | 335° |
| 2026-05-05 20:41 | 51.52633 | 7.64521 | 1165 ft | 93 kts | 291° |
| 2026-05-05 20:41 | 51.52599 | 7.63464 | 813 ft | 100 kts | 249° |
| 2026-05-05 20:42 | 51.52276 | 7.62482 | 474 ft | 97 kts | 240° |
| 2026-05-05 20:42 | 51.51980 | 7.61641 | 407 ft | 75 kts | 240° |
| 2026-05-05 20:42 | 51.51731 | 7.60944 | 459 ft | 77 kts | 240° |
| 2026-05-05 20:42 | 51.51474 | 7.60220 | 713 ft | 75 kts | 242° |
| 2026-05-05 20:43 | 51.51229 | 7.59455 | 940 ft | 76 kts | 243° |
| 2026-05-05 20:43 | 51.51085 | 7.58703 | 1218 ft | 70 kts | 279° |
| 2026-05-05 20:43 | 51.51411 | 7.58065 | 1375 ft | 82 kts | 329° |
| 2026-05-05 20:43 | 51.51929 | 7.57690 | 1650 ft | 79 kts | 339° |
| 2026-05-05 20:44 | 51.52505 | 7.57626 | 1789 ft | 87 kts | 4° |
| 2026-05-05 20:44 | 51.53168 | 7.57674 | 1819 ft | 101 kts | 358° |
| 2026-05-05 20:44 | 51.53852 | 7.57514 | 1938 ft | 99 kts | 343° |
| 2026-05-05 20:44 | 51.54468 | 7.57117 | 2134 ft | 90 kts | 335° |
| 2026-05-05 20:45 | 51.55592 | 7.56112 | 2391 ft | 96 kts | 329° |
| 2026-05-05 20:45 | 51.56205 | 7.55524 | 2429 ft | 108 kts | 329° |
| 2026-05-05 20:45 | 51.56870 | 7.54959 | 2460 ft | 109 kts | 332° |
| 2026-05-05 20:46 | 51.57530 | 7.54389 | 2492 ft | 107 kts | 330° |
| 2026-05-05 20:46 | 51.58168 | 7.53781 | 2536 ft | 105 kts | 327° |
| 2026-05-05 20:46 | 51.58819 | 7.53326 | 2663 ft | 102 kts | 359° |
| 2026-05-05 20:46 | 51.59474 | 7.53846 | 2639 ft | 113 kts | 48° |
| 2026-05-05 20:47 | 51.59930 | 7.54767 | 2827 ft | 103 kts | 52° |
| 2026-05-05 20:47 | 51.60391 | 7.55739 | 2797 ft | 110 kts | 53° |
| 2026-05-05 20:47 | 51.60786 | 7.56790 | 2829 ft | 113 kts | 70° |
| 2026-05-05 20:47 | 51.61021 | 7.58020 | 2797 ft | 113 kts | 75° |
| 2026-05-05 20:48 | 51.61320 | 7.59121 | 2887 ft | 108 kts | 59° |
| 2026-05-05 20:48 | 51.61732 | 7.60131 | 2907 ft | 110 kts | 54° |
| 2026-05-05 20:48 | 51.62179 | 7.61138 | 2921 ft | 111 kts | 54° |
| 2026-05-05 20:48 | 51.62607 | 7.62160 | 2984 ft | 108 kts | 58° |
| 2026-05-05 20:49 | 51.62991 | 7.63192 | 3009 ft | 110 kts | 58° |
| 2026-05-05 20:49 | 51.63415 | 7.64240 | 3034 ft | 112 kts | 56° |
| 2026-05-05 20:49 | 51.63837 | 7.65303 | 3030 ft | 113 kts | 58° |
| 2026-05-05 20:49 | 51.64250 | 7.66369 | 3078 ft | 111 kts | 59° |
| 2026-05-05 20:50 | 51.64639 | 7.67458 | 3052 ft | 115 kts | 62° |
| 2026-05-05 20:50 | 51.65025 | 7.68586 | 3033 ft | 115 kts | 56° |
| 2026-05-05 20:50 | 51.65481 | 7.69629 | 3042 ft | 111 kts | 56° |
| 2026-05-05 20:50 | 51.65894 | 7.70688 | 2947 ft | 113 kts | 61° |
| 2026-05-05 20:51 | 51.66229 | 7.71841 | 2849 ft | 116 kts | 66° |
| 2026-05-05 20:51 | 51.66493 | 7.73080 | 2711 ft | 114 kts | 75° |
| 2026-05-05 20:51 | 51.66723 | 7.74212 | 2451 ft | 104 kts | 65° |
| 2026-05-05 20:51 | 51.67083 | 7.75162 | 2183 ft | 98 kts | 55° |
| 2026-05-05 20:52 | 51.67489 | 7.76067 | 1929 ft | 96 kts | 52° |
| 2026-05-05 20:52 | 51.67899 | 7.76865 | 1781 ft | 89 kts | 46° |
| 2026-05-05 20:52 | 51.68402 | 7.77524 | 1499 ft | 91 kts | 25° |
| 2026-05-05 20:52 | 51.68971 | 7.77691 | 1411 ft | 80 kts | 357° |
| 2026-05-05 20:53 | 51.69495 | 7.77604 | 1337 ft | 72 kts | 348° |
| 2026-05-05 20:53 | 51.69981 | 7.77389 | 1346 ft | 73 kts | 332° |
| 2026-05-05 20:53 | 51.70420 | 7.76892 | 1312 ft | 78 kts | 330° |
| 2026-05-05 20:53 | 51.70951 | 7.76902 | 1287 ft | 80 kts | 29° |
| 2026-05-05 20:54 | 51.71433 | 7.77461 | 1179 ft | 89 kts | 37° |
| 2026-05-05 20:54 | 51.71932 | 7.78070 | 1131 ft | 89 kts | 36° |
| 2026-05-05 20:54 | 51.72399 | 7.78649 | 1182 ft | 80 kts | 39° |
| 2026-05-05 20:54 | 51.72756 | 7.79311 | 1207 ft | 83 kts | 48° |
| 2026-05-05 20:55 | 51.73092 | 7.80023 | 1322 ft | 80 kts | 63° |
| 2026-05-05 20:55 | 51.73284 | 7.80846 | 1360 ft | 78 kts | 75° |
| 2026-05-05 20:55 | 51.73401 | 7.81724 | 1419 ft | 86 kts | 81° |
| 2026-05-05 20:55 | 51.73527 | 7.82769 | 1353 ft | 100 kts | 77° |
| 2026-05-05 20:56 | 51.73681 | 7.83875 | 1370 ft | 98 kts | 79° |
| 2026-05-05 20:56 | 51.73752 | 7.84905 | 1464 ft | 89 kts | 88° |
| 2026-05-05 20:56 | 51.73812 | 7.85896 | 1495 ft | 89 kts | 79° |
| 2026-05-05 20:56 | 51.73856 | 7.86931 | 1425 ft | 96 kts | 100° |
| 2026-05-05 20:57 | 51.73535 | 7.87730 | 1466 ft | 80 kts | 158° |
| 2026-05-05 20:57 | 51.72954 | 7.88041 | 1397 ft | 91 kts | 163° |
| 2026-05-05 20:57 | 51.72350 | 7.88264 | 1419 ft | 94 kts | 174° |
| 2026-05-05 20:57 | 51.71698 | 7.88329 | 1467 ft | 90 kts | 186° |
| 2026-05-05 20:58 | 51.71164 | 7.87907 | 1534 ft | 88 kts | 234° |
| 2026-05-05 20:58 | 51.70905 | 7.86921 | 1413 ft | 101 kts | 246° |
| 2026-05-05 20:58 | 51.70603 | 7.85976 | 1207 ft | 88 kts | 242° |
| 2026-05-05 20:58 | 51.70313 | 7.85148 | 980 ft | 85 kts | 239° |
| 2026-05-05 20:59 | 51.70006 | 7.84333 | 742 ft | 84 kts | 240° |
| 2026-05-05 20:59 | 51.69698 | 7.83553 | 539 ft | 81 kts | 238° |
| 2026-05-05 20:59 | 51.69419 | 7.82841 | 358 ft | 71 kts | 238° |
| 2026-05-05 20:59 | 51.69178 | 7.82200 | 204 ft | 62 kts | 239° |
| 2026-05-05 21:00 | 51.68976 | 7.81656 | 237 ft | 60 kts | 240° |
| 2026-05-05 21:00 | 51.68793 | 7.81086 | 427 ft | 58 kts | 246° |
| 2026-05-05 21:00 | 51.68605 | 7.80472 | 596 ft | 65 kts | 249° |
| 2026-05-05 21:00 | 51.68443 | 7.79746 | 748 ft | 74 kts | 255° |
| 2026-05-05 21:01 | 51.68342 | 7.78882 | 844 ft | 88 kts | 265° |
| 2026-05-05 21:01 | 51.68439 | 7.77893 | 995 ft | 90 kts | 307° |
| 2026-05-05 21:01 | 51.69001 | 7.77521 | 1188 ft | 91 kts | 354° |
| 2026-05-05 21:01 | 51.69634 | 7.77451 | 1385 ft | 90 kts | 354° |
| 2026-05-05 21:02 | 51.70223 | 7.77233 | 1647 ft | 86 kts | 347° |
| 2026-05-05 21:02 | 51.70836 | 7.77251 | 1834 ft | 89 kts | 22° |
| 2026-05-05 21:02 | 51.71222 | 7.78067 | 1922 ft | 101 kts | 69° |
| 2026-05-05 21:02 | 51.71400 | 7.79096 | 1945 ft | 87 kts | 85° |
| 2026-05-05 21:03 | 51.71482 | 7.80077 | 1816 ft | 87 kts | 88° |
| 2026-05-05 21:03 | 51.71486 | 7.81092 | 1611 ft | 98 kts | 100° |
| 2026-05-05 21:03 | 51.71393 | 7.82142 | 1569 ft | 93 kts | 102° |
| 2026-05-05 21:03 | 51.71107 | 7.83023 | 1347 ft | 88 kts | 147° |
| 2026-05-05 21:04 | 51.70597 | 7.83361 | 1175 ft | 73 kts | 168° |
| 2026-05-05 21:04 | 51.70112 | 7.83472 | 940 ft | 64 kts | 187° |
| 2026-05-05 21:04 | 51.69682 | 7.83290 | 594 ft | 63 kts | 211° |
| 2026-05-05 21:04 | 51.69399 | 7.82803 | 318 ft | 56 kts | 240° |
| 2026-05-05 21:05 | 51.69217 | 7.82307 | 206 ft | 47 kts | 242° |
| 2026-05-05 21:05 | 51.69082 | 7.81941 | 197 ft | 30 kts | 240° |
| 2026-05-05 21:05 | 51.68996 | 7.81700 | 203 ft | 22 kts | 241° |
| 2026-05-05 21:05 | 51.68928 | 7.81514 | 195 ft | 17 kts | 238° |
| 2026-05-05 21:06 | 51.68938 | 7.81415 | 192 ft | 10 kts | 338° |
| 2026-05-05 21:06 | 51.68989 | 7.81403 | 194 ft | 2 kts | 122° |
| 2026-05-05 21:06 | 51.68986 | 7.81406 | 196 ft | 0 kts | 181° |
| 2026-05-05 21:12 | 51.68987 | 7.81406 | 195 ft | 0 kts | 181° |
| 2026-05-05 21:16 | 51.68966 | 7.81398 | 197 ft | 5 kts | 171° |
| 2026-05-05 21:16 | 51.68942 | 7.81413 | 192 ft | 1 kts | 154° |
| 2026-05-05 21:16 | 51.68905 | 7.81452 | 196 ft | 8 kts | 99° |
| 2026-05-05 21:17 | 51.68961 | 7.81616 | 201 ft | 42 kts | 59° |
| 2026-05-05 21:17 | 51.69160 | 7.82215 | 316 ft | 66 kts | 68° |
| 2026-05-05 21:17 | 51.69293 | 7.82923 | 562 ft | 65 kts | 83° |
| 2026-05-05 21:17 | 51.69286 | 7.83730 | 748 ft | 74 kts | 115° |
| 2026-05-05 21:18 | 51.68837 | 7.84205 | 861 ft | 88 kts | 168° |
| 2026-05-05 21:18 | 51.68259 | 7.84272 | 1070 ft | 87 kts | 209° |
| 2026-05-05 21:18 | 51.67996 | 7.83390 | 1152 ft | 96 kts | 263° |
| 2026-05-05 21:18 | 51.67943 | 7.82693 | 1284 ft | 93 kts | 262° |
| 2026-05-05 21:19 | 51.67850 | 7.81716 | 1528 ft | 85 kts | 259° |
| 2026-05-05 21:19 | 51.67740 | 7.80771 | 1744 ft | 86 kts | 261° |
| 2026-05-05 21:19 | 51.67611 | 7.79837 | 1967 ft | 87 kts | 259° |
| 2026-05-05 21:19 | 51.67526 | 7.78881 | 2168 ft | 86 kts | 263° |
| 2026-05-05 21:20 | 51.67387 | 7.77618 | 2456 ft | 85 kts | 260° |
| 2026-05-05 21:20 | 51.67322 | 7.76988 | 2613 ft | 85 kts | 263° |
| 2026-05-05 21:20 | 51.67264 | 7.76005 | 2797 ft | 90 kts | 263° |
| 2026-05-05 21:20 | 51.67108 | 7.75011 | 2932 ft | 94 kts | 257° |
| 2026-05-05 21:21 | 51.66929 | 7.73978 | 3050 ft | 100 kts | 254° |
| 2026-05-05 21:21 | 51.66746 | 7.72849 | 3057 ft | 107 kts | 256° |
| 2026-05-05 21:21 | 51.66514 | 7.71683 | 3032 ft | 112 kts | 252° |
| 2026-05-05 21:21 | 51.66287 | 7.70518 | 3087 ft | 106 kts | 253° |
| 2026-05-05 21:22 | 51.65998 | 7.69401 | 3037 ft | 110 kts | 243° |
| 2026-05-05 21:22 | 51.65650 | 7.68291 | 3079 ft | 109 kts | 243° |
| 2026-05-05 21:22 | 51.65263 | 7.67225 | 3004 ft | 116 kts | 237° |
| 2026-05-05 21:22 | 51.64785 | 7.66221 | 3044 ft | 110 kts | 232° |
| 2026-05-05 21:23 | 51.64332 | 7.65194 | 2983 ft | 114 kts | 238° |
| 2026-05-05 21:23 | 51.63913 | 7.64115 | 2923 ft | 113 kts | 238° |
| 2026-05-05 21:23 | 51.63625 | 7.62929 | 2802 ft | 116 kts | 255° |
| 2026-05-05 21:23 | 51.63352 | 7.61751 | 2790 ft | 111 kts | 245° |
| 2026-05-05 21:24 | 51.62976 | 7.60645 | 2719 ft | 113 kts | 238° |
| 2026-05-05 21:24 | 51.62324 | 7.60119 | 2737 ft | 112 kts | 175° |
| 2026-05-05 21:24 | 51.61590 | 7.60539 | 2725 ft | 116 kts | 156° |
| 2026-05-05 21:24 | 51.60829 | 7.60922 | 2644 ft | 112 kts | 171° |
| 2026-05-05 21:25 | 51.60057 | 7.61107 | 2478 ft | 114 kts | 172° |
| 2026-05-05 21:25 | 51.59261 | 7.61302 | 2329 ft | 113 kts | 173° |
| 2026-05-05 21:25 | 51.58496 | 7.61496 | 2264 ft | 109 kts | 171° |
| 2026-05-05 21:25 | 51.57750 | 7.61770 | 2044 ft | 112 kts | 168° |
| 2026-05-05 21:26 | 51.57011 | 7.62034 | 1869 ft | 105 kts | 172° |
| 2026-05-05 21:26 | 51.56295 | 7.62207 | 1706 ft | 103 kts | 173° |
| 2026-05-05 21:26 | 51.55606 | 7.62460 | 1581 ft | 94 kts | 144° |
| 2026-05-05 21:26 | 51.55460 | 7.63406 | 1456 ft | 96 kts | 76° |
| 2026-05-05 21:27 | 51.55563 | 7.64432 | 1432 ft | 87 kts | 96° |
| 2026-05-05 21:27 | 51.55173 | 7.65085 | 1345 ft | 90 kts | 161° |
| 2026-05-05 21:27 | 51.54552 | 7.65405 | 1309 ft | 94 kts | 165° |
| 2026-05-05 21:27 | 51.53943 | 7.65609 | 1376 ft | 79 kts | 189° |
| 2026-05-05 21:28 | 51.53452 | 7.65174 | 1209 ft | 83 kts | 224° |
| 2026-05-05 21:28 | 51.53080 | 7.64532 | 961 ft | 68 kts | 232° |
| 2026-05-05 21:28 | 51.52817 | 7.63961 | 728 ft | 63 kts | 236° |
| 2026-05-05 21:28 | 51.52592 | 7.63371 | 598 ft | 61 kts | 242° |
| 2026-05-05 21:29 | 51.52391 | 7.62800 | 490 ft | 58 kts | 241° |
| 2026-05-05 21:29 | 51.52199 | 7.62259 | 412 ft | 50 kts | 242° |
| 2026-05-05 21:29 | 51.52068 | 7.61890 | 405 ft | 30 kts | 242° |
| 2026-05-05 21:29 | 51.51982 | 7.61645 | 406 ft | 21 kts | 239° |
| 2026-05-05 21:30 | 51.51920 | 7.61470 | 407 ft | 15 kts | 241° |
| 2026-05-05 21:30 | 51.51875 | 7.61349 | 410 ft | 10 kts | 236° |
| 2026-05-05 21:30 | 51.51844 | 7.61264 | 411 ft | 8 kts | 240° |
| 2026-05-05 21:30 | 51.51809 | 7.61169 | 413 ft | 18 kts | 237° |
| 2026-05-05 21:31 | 51.51715 | 7.60896 | 417 ft | 38 kts | 243° |
| 2026-05-05 21:31 | 51.51590 | 7.60617 | 418 ft | 19 kts | 193° |
| 2026-05-05 21:31 | 51.51527 | 7.60701 | 425 ft | 9 kts | 84° |
| 2026-05-05 21:31 | 51.51551 | 7.60864 | 432 ft | 18 kts | 81° |
| 2026-05-05 21:32 | 51.51574 | 7.61017 | 436 ft | 10 kts | 85° |
| 2026-05-05 21:32 | 51.51548 | 7.61055 | 434 ft | 4 kts | 162° |
| 2026-05-05 21:32 | 51.51522 | 7.61063 | 433 ft | 10 kts | 189° |
| 2026-05-05 21:32 | 51.51484 | 7.60986 | 440 ft | 8 kts | 239° |
| 2026-05-05 21:33 | 51.51461 | 7.60921 | 442 ft | 6 kts | 238° |
| 2026-05-05 21:33 | 51.51446 | 7.60881 | 433 ft | 3 kts | 239° |
| 2026-05-05 21:33 | 51.51423 | 7.60837 | 443 ft | 22 kts | 216° |
| 2026-05-05 21:33 | 51.51338 | 7.60689 | 453 ft | 8 kts | 239° |
| 2026-05-05 21:34 | 51.51266 | 7.60558 | 468 ft | 14 kts | 185° |
| 2026-05-05 21:34 | 51.51249 | 7.60561 | 469 ft | 0 kts | 165° |